Time;durP1;ratioP1;P1;durP2;ratioP2;P2;SDS_P1;SDS_P2;PMS_P1;PMS_P2;Temp;Humidity;BMP_temperature;BMP_pressure;BME280_temperature;BME280_humidity;BME280_pressure;Samples;Min_cycle;Max_cycle;Signal;HPM_P1;HPM_P2
2022/10/06 00:00:55;;;;;;;;;;;;;;;;;;5069125;28;19917;-68
2022/10/06 00:03:23;;;;;;;;;;;;;;;;;;5069388;28;19947;-67
2022/10/06 00:05:48;;;;;;;;;;;;;;;;;;5096183;28;19912;-68
2022/10/06 00:08:13;;;;;;;;;;;;;;;;;;5054618;28;19912;-67
2022/10/06 00:10:39;;;;;;;;;;;;;;;;;;5115340;28;19908;-67
2022/10/06 00:13:04;;;;;;;;;;;;;;;;;;5060610;28;20519;-66
2022/10/06 00:15:29;;;;;;;;;;;;;;;;;;5053603;28;19913;-67
2022/10/06 00:17:54;;;;;;;;;;;;;;;;;;5056084;28;19966;-65
2022/10/06 00:20:19;;;;;;;;;;;;;;;;;;5071672;28;19924;-67
2022/10/06 00:22:44;;;;;;;;;;;;;;;;;;5071701;28;20372;-67
2022/10/06 00:25:10;;;;;;;;;;;;;;;;;;5068818;28;20823;-67
2022/10/06 00:27:35;;;;;;;;;;;;;;;;;;5068689;28;20393;-67
2022/10/06 00:30:00;;;;;;;;;;;;;;;;;;5071229;28;20384;-68
2022/10/06 00:32:26;;;;;;;;;;;;;;;;;;5071064;28;19977;-67
2022/10/06 00:34:52;;;;;;;;;;;;;;;;;;5069228;28;20373;-68
2022/10/06 00:37:17;;;;;;;;;;;;;;;;;;5073580;28;19955;-68
2022/10/06 00:39:42;;;;;;;;;;;;;;;;;;5074408;28;19944;-68
2022/10/06 00:42:07;;;;;;;;;;;;;;;;;;5092233;28;19912;-67
2022/10/06 00:44:32;;;;;;;;;;;;;;;;;;5073106;28;19935;-66
2022/10/06 00:46:58;;;;;;;;;;;;;;;;;;5094990;28;19913;-67
2022/10/06 00:49:23;;;;;;;;;;;;;;;;;;5072072;28;20015;-66
2022/10/06 00:51:48;;;;;;;;;;;;;;;;;;5073628;28;19919;-67
2022/10/06 00:54:13;;;;;;;;;;;;;;;;;;5072610;28;19913;-66
2022/10/06 00:56:39;;;;;;;;;;;;;;;;;;5077437;28;19962;-67
2022/10/06 00:59:04;;;;;;;;;;;;;;;;;;5055238;28;19916;-67
2022/10/06 01:01:29;;;;;;;;;;;;;;;;;;5083547;28;19956;-66
2022/10/06 01:03:54;;;;;;;;;;;;;;;;;;5081694;28;19916;-67
2022/10/06 01:06:20;;;;;;;;;;;;;;;;;;5065741;28;19913;-68
2022/10/06 01:08:45;;;;;;;;;;;;;;;;;;5073743;28;19959;-68
2022/10/06 01:11:12;;;;;;;;;;;;;;;;;;5071991;28;19942;-68
2022/10/06 01:13:37;;;;;;;;;;;;;;;;;;5064793;28;19912;-68
2022/10/06 01:16:02;;;;;;;;;;;;;;;;;;5073560;28;19919;-65
2022/10/06 01:18:27;;;;;;;;;;;;;;;;;;5102948;28;19942;-68
2022/10/06 01:20:52;;;;;;;;;;;;;;;;;;5069626;28;19971;-68
2022/10/06 01:23:17;;;;;;;;;;;;;;;;;;5069170;28;19912;-68
2022/10/06 01:25:42;;;;;;;;;;;;;;;;;;5070287;28;19916;-67
2022/10/06 01:28:08;;;;;;;;;;;;;;;;;;5080962;28;19918;-67
2022/10/06 01:30:33;;;;;;;;;;;;;;;;;;5072177;28;19916;-68
2022/10/06 01:32:58;;;;;;;;;;;;;;;;;;5080972;28;19908;-67
2022/10/06 01:35:23;;;;;;;;;;;;;;;;;;5098429;27;19916;-66
2022/10/06 01:37:48;;;;;;;;;;;;;;;;;;5086344;28;20127;-68
2022/10/06 01:40:13;;;;;;;;;;;;;;;;;;5069743;28;19927;-66
2022/10/06 01:42:38;;;;;;;;;;;;;;;;;;5074378;28;19912;-68
2022/10/06 01:45:04;;;;;;;;;;;;;;;;;;5069592;28;20031;-67
2022/10/06 01:47:29;;;;;;;;;;;;;;;;;;5068082;28;19917;-68
2022/10/06 01:49:54;;;;;;;;;;;;;;;;;;5064574;28;19920;-67
2022/10/06 01:52:19;;;;;;;;;;;;;;;;;;5072720;28;19917;-67
2022/10/06 01:54:44;;;;;;;;;;;;;;;;;;5067703;28;19920;-67
2022/10/06 01:57:10;;;;;;;;;;;;;;;;;;5064563;28;19917;-67
2022/10/06 01:59:35;;;;;;;;;;;;;;;;;;5061208;28;19923;-67
2022/10/06 02:02:00;;;;;;;;;;;;;;;;;;5061983;28;19928;-67
2022/10/06 02:04:25;;;;;;;;;;;;;;;;;;5062466;28;19959;-68
2022/10/06 02:06:50;;;;;;;;;;;;;;;;;;5063583;28;19917;-67
2022/10/06 02:09:15;;;;;;;;;;;;;;;;;;5062738;28;19913;-67
2022/10/06 02:11:40;;;;;;;;;;;;;;;;;;5064131;28;20019;-68
2022/10/06 02:14:06;;;;;;;;;;;;;;;;;;5093260;28;19908;-67
2022/10/06 02:16:31;;;;;;;;;;;;;;;;;;5063383;28;20156;-68
2022/10/06 02:18:56;;;;;;;;;;;;;;;;;;5093728;27;19927;-68
2022/10/06 02:21:21;;;;;;;;;;;;;;;;;;5067861;28;19920;-68
2022/10/06 02:23:47;;;;;;;;;;;;;;;;;;5074652;28;19961;-68
2022/10/06 02:26:12;;;;;;;;;;;;;;;;;;5075662;28;19917;-67
2022/10/06 02:28:38;;;;;;;;;;;;;;;;;;5072768;28;19913;-68
2022/10/06 02:31:03;;;;;;;;;;;;;;;;;;5071120;28;19919;-67
2022/10/06 02:33:28;;;;;;;;;;;;;;;;;;5069705;28;19913;-67
2022/10/06 02:35:53;;;;;;;;;;;;;;;;;;5103506;28;19958;-67
2022/10/06 02:38:18;;;;;;;;;;;;;;;;;;5106966;27;19938;-67
2022/10/06 02:40:43;;;;;;;;;;;;;;;;;;5069143;28;19920;-67
2022/10/06 02:43:08;;;;;;;;;;;;;;;;;;5065676;28;19918;-68
2022/10/06 02:45:34;;;;;;;;;;;;;;;;;;5105506;27;19916;-68
2022/10/06 02:47:59;;;;;;;;;;;;;;;;;;5069898;28;19960;-68
2022/10/06 02:50:24;;;;;;;;;;;;;;;;;;5070344;28;20327;-68
2022/10/06 02:52:49;;;;;;;;;;;;;;;;;;5074420;28;20011;-68
2022/10/06 02:55:14;;;;;;;;;;;;;;;;;;5072394;28;19913;-67
2022/10/06 02:57:39;;;;;;;;;;;;;;;;;;5101355;28;20380;-68
2022/10/06 03:00:06;;;;;;;;;;;;;;;;;;5068743;28;19917;-67
2022/10/06 03:02:31;;;;;;;;;;;;;;;;;;5066149;28;19916;-68
2022/10/06 03:04:56;;;;;;;;;;;;;;;;;;5070874;28;19935;-68
2022/10/06 03:07:21;;;;;;;;;;;;;;;;;;5069863;28;20390;-68
2022/10/06 03:09:46;;;;;;;;;;;;;;;;;;5068241;28;20439;-68
2022/10/06 03:12:12;;;;;;;;;;;;;;;;;;5103207;28;19920;-68
2022/10/06 03:14:37;;;;;;;;;;;;;;;;;;5103038;28;19913;-67
2022/10/06 03:17:02;;;;;;;;;;;;;;;;;;5071786;28;20015;-68
2022/10/06 03:19:27;;;;;;;;;;;;;;;;;;5067074;28;19917;-68
2022/10/06 03:21:52;;;;;;;;;;;;;;;;;;5071282;28;20508;-68
2022/10/06 03:24:17;;;;;;;;;;;;;;;;;;5098310;28;19920;-68
2022/10/06 03:26:42;;;;;;;;;;;;;;;;;;5079202;28;19916;-67
2022/10/06 03:29:08;;;;;;;;;;;;;;;;;;5075362;28;20369;-68
2022/10/06 03:31:33;;;;;;;;;;;;;;;;;;5071591;28;20403;-68
2022/10/06 03:33:58;;;;;;;;;;;;;;;;;;5055305;28;19919;-68
2022/10/06 03:36:23;;;;;;;;;;;;;;;;;;5069427;28;19912;-66
2022/10/06 03:38:48;;;;;;;;;;;;;;;;;;5070649;28;19938;-68
2022/10/06 03:41:13;;;;;;;;;;;;;;;;;;5070802;28;19912;-65
2022/10/06 03:43:38;;;;;;;;;;;;;;;;;;5067281;28;19913;-67
2022/10/06 03:46:04;;;;;;;;;;;;;;;;;;5071229;28;20015;-67
2022/10/06 03:48:29;;;;;;;;;;;;;;;;;;5094039;28;19973;-66
2022/10/06 03:50:54;;;;;;;;;;;;;;;;;;5070447;28;19934;-66
2022/10/06 03:53:24;;;;;;;;;;;;;;;;;;5074232;28;19946;-66
2022/10/06 03:55:49;;;;;;;;;;;;;;;;;;5063245;28;20353;-66
2022/10/06 03:58:14;;;;;;;;;;;;;;;;;;5070784;28;20047;-67
2022/10/06 04:00:40;;;;;;;;;;;;;;;;;;5071636;28;19917;-68
2022/10/06 04:03:05;;;;;;;;;;;;;;;;;;5070544;28;19916;-67
2022/10/06 04:05:30;;;;;;;;;;;;;;;;;;5064730;28;19993;-68
2022/10/06 04:07:55;;;;;;;;;;;;;;;;;;5071300;28;20002;-66
2022/10/06 04:10:20;;;;;;;;;;;;;;;;;;5104507;28;19920;-67
2022/10/06 04:12:45;;;;;;;;;;;;;;;;;;5072901;28;19912;-67
2022/10/06 04:15:10;;;;;;;;;;;;;;;;;;5079437;28;20353;-67
2022/10/06 04:17:36;;;;;;;;;;;;;;;;;;5071420;28;19920;-67
2022/10/06 04:20:01;;;;;;;;;;;;;;;;;;5069545;28;19920;-68
2022/10/06 04:22:26;;;;;;;;;;;;;;;;;;5065041;28;19924;-67
2022/10/06 04:24:51;;;;;;;;;;;;;;;;;;5060971;28;19935;-67
2022/10/06 04:27:28;;;;;;;;;;;;;;;;;;5070125;28;19916;-68
2022/10/06 04:29:55;;;;;;;;;;;;;;;;;;5073846;28;19916;-67
2022/10/06 04:32:20;;;;;;;;;;;;;;;;;;5070016;28;19921;-67
2022/10/06 04:34:45;;;;;;;;;;;;;;;;;;5063569;28;19923;-68
2022/10/06 04:37:10;;;;;;;;;;;;;;;;;;5098401;27;20406;-68
2022/10/06 04:39:36;;;;;;;;;;;;;;;;;;5094415;28;20392;-66
2022/10/06 04:42:02;;;;;;;;;;;;;;;;;;5058890;28;19916;-68
2022/10/06 04:44:27;;;;;;;;;;;;;;;;;;5064683;28;20007;-67
2022/10/06 04:46:52;;;;;;;;;;;;;;;;;;5063761;28;21556;-65
2022/10/06 04:49:17;;;;;;;;;;;;;;;;;;5066933;28;19921;-68
2022/10/06 04:51:42;;;;;;;;;;;;;;;;;;5062038;28;20349;-66
2022/10/06 04:54:08;;;;;;;;;;;;;;;;;;5063086;28;19986;-68
2022/10/06 04:56:33;;;;;;;;;;;;;;;;;;5058962;28;19920;-67
2022/10/06 04:58:58;;;;;;;;;;;;;;;;;;5091362;28;20340;-67
2022/10/06 05:01:23;;;;;;;;;;;;;;;;;;5060632;28;19923;-68
2022/10/06 05:03:48;;;;;;;;;;;;;;;;;;5057914;28;20011;-67
2022/10/06 05:06:14;;;;;;;;;;;;;;;;;;5064069;28;20332;-68
2022/10/06 05:08:39;;;;;;;;;;;;;;;;;;5068164;28;19920;-68
2022/10/06 05:11:04;;;;;;;;;;;;;;;;;;5061875;28;19931;-66
2022/10/06 05:13:30;;;;;;;;;;;;;;;;;;5062294;28;19960;-68
2022/10/06 05:15:55;;;;;;;;;;;;;;;;;;5096746;28;20027;-68
2022/10/06 05:18:20;;;;;;;;;;;;;;;;;;5069381;28;20376;-67
2022/10/06 05:20:45;;;;;;;;;;;;;;;;;;5064995;28;19998;-67
2022/10/06 05:23:10;;;;;;;;;;;;;;;;;;5061647;28;19927;-67
2022/10/06 05:25:36;;;;;;;;;;;;;;;;;;5073655;28;19920;-67
2022/10/06 05:28:01;;;;;;;;;;;;;;;;;;5064845;28;19924;-67
2022/10/06 05:30:26;;;;;;;;;;;;;;;;;;5068436;28;19913;-67
2022/10/06 05:32:51;;;;;;;;;;;;;;;;;;5068130;28;19920;-68
2022/10/06 05:35:17;;;;;;;;;;;;;;;;;;5071019;28;20100;-67
2022/10/06 05:37:42;;;;;;;;;;;;;;;;;;5072960;28;19912;-68
2022/10/06 05:40:07;;;;;;;;;;;;;;;;;;5060807;28;19913;-68
2022/10/06 05:42:32;;;;;;;;;;;;;;;;;;5069979;28;19912;-68
2022/10/06 05:44:57;;;;;;;;;;;;;;;;;;5070126;28;19924;-70
2022/10/06 05:47:22;;;;;;;;;;;;;;;;;;5074002;28;20365;-69
2022/10/06 05:49:47;;;;;;;;;;;;;;;;;;5100974;28;20447;-68
2022/10/06 05:52:13;;;;;;;;;;;;;;;;;;5078191;28;19966;-67
2022/10/06 05:54:38;;;;;;;;;;;;;;;;;;5069391;28;20284;-66
2022/10/06 05:57:03;;;;;;;;;;;;;;;;;;5089453;28;19908;-66
2022/10/06 05:59:28;;;;;;;;;;;;;;;;;;5062010;28;19920;-66
2022/10/06 06:01:53;;;;;;;;;;;;;;;;;;5065221;28;19916;-66
2022/10/06 06:04:19;;;;;;;;;;;;;;;;;;5092104;28;19959;-67
2022/10/06 06:06:44;;;;;;;;;;;;;;;;;;5077338;28;20384;-67
2022/10/06 06:09:09;;;;;;;;;;;;;;;;;;5071678;28;19913;-67
2022/10/06 06:11:34;;;;;;;;;;;;;;;;;;5067158;28;19924;-67
2022/10/06 06:13:59;;;;;;;;;;;;;;;;;;5073653;28;19916;-68
2022/10/06 06:16:24;;;;;;;;;;;;;;;;;;5073107;28;19908;-68
2022/10/06 06:18:50;;;;;;;;;;;;;;;;;;5069033;28;19923;-67
2022/10/06 06:21:15;;;;;;;;;;;;;;;;;;5071229;28;19967;-68
2022/10/06 06:23:40;;;;;;;;;;;;;;;;;;5073442;28;19913;-67
2022/10/06 06:26:06;;;;;;;;;;;;;;;;;;5073538;28;20407;-66
2022/10/06 06:28:31;;;;;;;;;;;;;;;;;;5071884;28;19916;-67
2022/10/06 06:30:56;;;;;;;;;;;;;;;;;;5078213;28;20364;-67
2022/10/06 06:33:21;;;;;;;;;;;;;;;;;;5076396;28;20427;-67
2022/10/06 06:35:46;;;;;;;;;;;;;;;;;;5077040;28;20368;-67
2022/10/06 06:38:11;;;;;;;;;;;;;;;;;;5064885;28;20479;-67
2022/10/06 06:40:37;;;;;;;;;;;;;;;;;;5056650;28;20003;-67
2022/10/06 06:43:02;;;;;;;;;;;;;;;;;;5084711;28;19996;-67
2022/10/06 06:45:27;;;;;;;;;;;;;;;;;;5084964;28;19908;-67
2022/10/06 06:47:52;;;;;;;;;;;;;;;;;;5078079;28;19904;-66
2022/10/06 06:50:17;;;;;;;;;;;;;;;;;;5069824;28;19919;-66
2022/10/06 06:52:43;;;;;;;;;;;;;;;;;;5102074;27;20007;-68
2022/10/06 06:55:08;;;;;;;;;;;;;;;;;;5072902;28;19908;-68
2022/10/06 06:57:33;;;;;;;;;;;;;;;;;;5065475;28;19909;-68
2022/10/06 07:00:01;;;;;;;;;;;;;;;;;;5055614;28;19920;-67
2022/10/06 07:02:28;;;;;;;;;;;;;;;;;;5068046;28;20026;-68
2022/10/06 07:04:53;;;;;;;;;;;;;;;;;;5065968;28;20388;-67
2022/10/06 07:07:19;;;;;;;;;;;;;;;;;;5082403;28;19954;-68
2022/10/06 07:09:45;;;;;;;;;;;;;;;;;;5076555;28;19917;-67
2022/10/06 07:12:10;;;;;;;;;;;;;;;;;;5100733;28;20258;-68
2022/10/06 07:14:35;;;;;;;;;;;;;;;;;;5064752;28;19920;-67
2022/10/06 07:25:13;;;;;;;;;;;;;;;;;;5070317;28;19947;-65
2022/10/06 07:27:42;;;;;;;;;;;;;;;;;;5098722;28;19967;-66
2022/10/06 07:30:08;;;;;;;;;;;;;;;;;;5059934;28;20003;-66
2022/10/06 07:32:33;;;;;;;;;;;;;;;;;;5082597;28;19917;-67
2022/10/06 07:34:59;;;;;;;;;;;;;;;;;;5061367;28;19939;-67
2022/10/06 07:37:24;;;;;;;;;;;;;;;;;;5092840;28;19912;-66
2022/10/06 07:39:49;;;;;;;;;;;;;;;;;;5069104;28;19927;-67
2022/10/06 07:42:14;;;;;;;;;;;;;;;;;;5064443;28;19928;-67
2022/10/06 07:44:40;;;;;;;;;;;;;;;;;;5068383;28;19920;-66
2022/10/06 07:47:05;;;;;;;;;;;;;;;;;;5102216;28;20058;-67
2022/10/06 07:49:30;;;;;;;;;;;;;;;;;;5062965;28;19965;-68
2022/10/06 07:51:57;;;;;;;;;;;;;;;;;;5067569;28;20751;-65
2022/10/06 07:54:23;;;;;;;;;;;;;;;;;;5072812;28;19924;-69
2022/10/06 07:56:49;;;;;;;;;;;;;;;;;;5073165;28;19916;-68
2022/10/06 07:59:14;;;;;;;;;;;;;;;;;;5073449;28;19919;-66
2022/10/06 08:01:39;;;;;;;;;;;;;;;;;;5073500;28;19917;-69
2022/10/06 08:04:05;;;;;;;;;;;;;;;;;;5072028;28;19927;-68
2022/10/06 08:06:30;;;;;;;;;;;;;;;;;;5103682;28;20007;-68
2022/10/06 08:08:55;;;;;;;;;;;;;;;;;;5073758;28;20469;-72
2022/10/06 08:11:21;;;;;;;;;;;;;;;;;;5074142;28;20371;-73
2022/10/06 08:13:47;;;;;;;;;;;;;;;;;;5073851;28;19916;-70
2022/10/06 08:16:12;;;;;;;;;;;;;;;;;;5072390;28;20319;-71
2022/10/06 08:18:38;;;;;;;;;;;;;;;;;;5068336;28;19920;-74
2022/10/06 08:21:03;;;;;;;;;;;;;;;;;;5071598;28;19920;-71
2022/10/06 08:23:28;;;;;;;;;;;;;;;;;;5072928;28;20394;-73
2022/10/06 08:25:55;;;;;;;;;;;;;;;;;;5101349;28;20004;-75
2022/10/06 08:28:21;;;;;;;;;;;;;;;;;;5074206;28;20007;-72
2022/10/06 08:30:46;;;;;;;;;;;;;;;;;;5108495;27;19917;-70
2022/10/06 08:33:11;;;;;;;;;;;;;;;;;;5071371;28;19912;-69
2022/10/06 08:35:38;;;;;;;;;;;;;;;;;;5064083;28;19920;-70
2022/10/06 08:38:03;;;;;;;;;;;;;;;;;;5072919;28;20065;-71
2022/10/06 08:40:28;;;;;;;;;;;;;;;;;;5104677;28;19964;-71
2022/10/06 08:42:53;;;;;;;;;;;;;;;;;;5072443;28;19920;-73
2022/10/06 08:45:20;;;;;;;;;;;;;;;;;;5110549;27;19920;-70
2022/10/06 08:47:46;;;;;;;;;;;;;;;;;;5070860;28;20141;-67
2022/10/06 08:50:11;;;;;;;;;;;;;;;;;;5069226;28;20416;-72
2022/10/06 08:52:36;;;;;;;;;;;;;;;;;;5071843;28;20003;-70
2022/10/06 08:55:02;;;;;;;;;;;;;;;;;;5069903;28;20320;-73
2022/10/06 08:57:27;;;;;;;;;;;;;;;;;;5067046;28;19913;-74
2022/10/06 08:59:52;;;;;;;;;;;;;;;;;;5074268;28;19916;-74
2022/10/06 09:02:17;;;;;;;;;;;;;;;;;;5064958;28;19925;-73
2022/10/06 09:04:42;;;;;;;;;;;;;;;;;;5076983;28;19916;-73
2022/10/06 09:07:07;;;;;;;;;;;;;;;;;;5072210;28;19966;-72
2022/10/06 09:09:33;;;;;;;;;;;;;;;;;;5096937;27;19913;-73
2022/10/06 09:11:58;;;;;;;;;;;;;;;;;;5073122;28;19912;-69
2022/10/06 09:14:25;;;;;;;;;;;;;;;;;;5094979;28;19927;-68
2022/10/06 09:16:50;;;;;;;;;;;;;;;;;;5062402;28;20381;-69
2022/10/06 09:19:15;;;;;;;;;;;;;;;;;;5066229;28;19932;-68
2022/10/06 09:21:41;;;;;;;;;;;;;;;;;;5074109;28;19963;-70
2022/10/06 09:24:06;;;;;;;;;;;;;;;;;;5070683;28;19916;-70
2022/10/06 09:26:31;;;;;;;;;;;;;;;;;;5072770;28;20269;-70
2022/10/06 09:28:56;;;;;;;;;;;;;;;;;;5072971;28;19908;-70
2022/10/06 09:31:21;;;;;;;;;;;;;;;;;;5073405;28;19919;-70
2022/10/06 09:33:46;;;;;;;;;;;;;;;;;;5078705;28;19982;-71
2022/10/06 09:36:12;;;;;;;;;;;;;;;;;;5072723;28;19913;-71
2022/10/06 09:38:37;;;;;;;;;;;;;;;;;;5076888;28;19974;-71
2022/10/06 09:41:02;;;;;;;;;;;;;;;;;;5073268;28;19958;-69
2022/10/06 09:43:27;;;;;;;;;;;;;;;;;;5072973;28;19939;-70
2022/10/06 09:45:53;;;;;;;;;;;;;;;;;;5070935;28;19916;-71
2022/10/06 09:48:19;;;;;;;;;;;;;;;;;;5070789;28;19913;-69
2022/10/06 09:50:45;;;;;;;;;;;;;;;;;;5071151;28;19959;-71
2022/10/06 09:53:10;;;;;;;;;;;;;;;;;;5071970;28;20349;-69
2022/10/06 09:55:35;;;;;;;;;;;;;;;;;;5071526;28;19966;-70
2022/10/06 09:58:00;;;;;;;;;;;;;;;;;;5071809;28;20007;-70
2022/10/06 10:00:25;;;;;;;;;;;;;;;;;;5072335;28;20364;-67
2022/10/06 10:02:52;;;;;;;;;;;;;;;;;;5068832;28;19916;-68
2022/10/06 10:05:18;;;;;;;;;;;;;;;;;;5071579;28;20353;-70
2022/10/06 10:07:43;;;;;;;;;;;;;;;;;;5069441;28;19919;-68
2022/10/06 10:10:08;;;;;;;;;;;;;;;;;;5070075;28;19909;-69
2022/10/06 10:12:33;;;;;;;;;;;;;;;;;;5075686;28;20276;-70
2022/10/06 10:14:58;;;;;;;;;;;;;;;;;;5071171;28;20207;-69
2022/10/06 10:17:23;;;;;;;;;;;;;;;;;;5068668;28;19999;-70
2022/10/06 10:19:51;;;;;;;;;;;;;;;;;;5068064;28;19926;-69
2022/10/06 10:22:16;;;;;;;;;;;;;;;;;;5073911;28;20303;-69
2022/10/06 10:24:42;;;;;;;;;;;;;;;;;;5075174;28;20366;-69
2022/10/06 10:27:07;;;;;;;;;;;;;;;;;;5071348;28;20377;-67
2022/10/06 10:29:33;;;;;;;;;;;;;;;;;;5069034;28;20327;-70
2022/10/06 10:31:58;;;;;;;;;;;;;;;;;;5069106;28;20327;-68
2022/10/06 10:34:23;;;;;;;;;;;;;;;;;;5071735;28;20007;-69
2022/10/06 10:36:49;;;;;;;;;;;;;;;;;;5071173;28;19962;-68
2022/10/06 10:39:14;;;;;;;;;;;;;;;;;;5070777;28;19912;-70
2022/10/06 10:41:39;;;;;;;;;;;;;;;;;;5071079;28;20395;-69
2022/10/06 10:44:05;;;;;;;;;;;;;;;;;;5072308;28;19916;-69
2022/10/06 10:46:30;;;;;;;;;;;;;;;;;;5070603;28;19917;-69
2022/10/06 10:48:55;;;;;;;;;;;;;;;;;;5065552;28;20373;-70
2022/10/06 10:51:21;;;;;;;;;;;;;;;;;;5069406;28;20356;-70
2022/10/06 10:53:46;;;;;;;;;;;;;;;;;;5069283;28;19919;-70
2022/10/06 10:56:11;;;;;;;;;;;;;;;;;;5075224;28;20006;-69
2022/10/06 10:58:36;;;;;;;;;;;;;;;;;;5072442;28;19917;-69
2022/10/06 11:01:02;;;;;;;;;;;;;;;;;;5067486;28;19969;-69
2022/10/06 11:03:28;;;;;;;;;;;;;;;;;;5070928;28;20008;-68
2022/10/06 11:05:53;;;;;;;;;;;;;;;;;;5072128;28;19958;-70
2022/10/06 11:08:21;;;;;;;;;;;;;;;;;;5068313;28;20277;-69
2022/10/06 11:10:47;;;;;;;;;;;;;;;;;;5072161;28;19916;-69
2022/10/06 11:13:13;;;;;;;;;;;;;;;;;;5069754;28;20357;-69
2022/10/06 11:15:38;;;;;;;;;;;;;;;;;;5071533;28;20011;-69
2022/10/06 11:18:03;;;;;;;;;;;;;;;;;;5066856;28;20073;-69
2022/10/06 11:20:28;;;;;;;;;;;;;;;;;;5065688;28;20025;-70
2022/10/06 11:22:53;;;;;;;;;;;;;;;;;;5102470;28;19921;-70
2022/10/06 11:25:18;;;;;;;;;;;;;;;;;;5071647;28;19915;-69
2022/10/06 11:27:44;;;;;;;;;;;;;;;;;;5069879;28;19988;-69
2022/10/06 11:30:09;;;;;;;;;;;;;;;;;;5070993;28;19916;-68
2022/10/06 11:32:34;;;;;;;;;;;;;;;;;;5070874;28;19916;-70
2022/10/06 11:34:59;;;;;;;;;;;;;;;;;;5070686;28;19939;-69
2022/10/06 11:37:24;;;;;;;;;;;;;;;;;;5068892;28;19946;-66
2022/10/06 11:39:49;;;;;;;;;;;;;;;;;;5069385;28;19958;-70
2022/10/06 11:42:14;;;;;;;;;;;;;;;;;;5070477;28;19916;-69
2022/10/06 11:44:40;;;;;;;;;;;;;;;;;;5084244;28;19943;-70
2022/10/06 11:47:05;;;;;;;;;;;;;;;;;;5070852;28;19924;-70
2022/10/06 11:49:31;;;;;;;;;;;;;;;;;;5067045;28;20007;-69
2022/10/06 11:51:56;;;;;;;;;;;;;;;;;;5078000;28;19919;-69
2022/10/06 11:54:21;;;;;;;;;;;;;;;;;;5070182;28;19920;-70
2022/10/06 11:56:46;;;;;;;;;;;;;;;;;;5100345;28;19917;-69
2022/10/06 11:59:12;;;;;;;;;;;;;;;;;;5074366;28;19912;-70
2022/10/06 12:01:37;;;;;;;;;;;;;;;;;;5070257;28;19983;-69
2022/10/06 12:04:03;;;;;;;;;;;;;;;;;;5092332;28;19995;-69
2022/10/06 12:06:28;;;;;;;;;;;;;;;;;;5077225;28;19913;-70
2022/10/06 12:08:53;;;;;;;;;;;;;;;;;;5054447;28;20391;-70
2022/10/06 12:11:18;;;;;;;;;;;;;;;;;;5061071;28;19912;-68
2022/10/06 12:13:44;;;;;;;;;;;;;;;;;;5071975;28;20018;-70
2022/10/06 12:16:09;;;;;;;;;;;;;;;;;;5065977;28;19947;-69
2022/10/06 12:18:34;;;;;;;;;;;;;;;;;;5068201;28;19932;-69
2022/10/06 12:21:05;;;;;;;;;;;;;;;;;;5082546;28;19920;-69
2022/10/06 12:23:32;;;;;;;;;;;;;;;;;;5071043;28;19921;-69
2022/10/06 12:25:57;;;;;;;;;;;;;;;;;;5051921;28;19997;-70
2022/10/06 12:28:22;;;;;;;;;;;;;;;;;;5063388;28;20464;-70
2022/10/06 12:30:47;;;;;;;;;;;;;;;;;;5069732;28;20396;-68
2022/10/06 12:33:12;;;;;;;;;;;;;;;;;;5065301;28;20380;-70
2022/10/06 12:35:40;;;;;;;;;;;;;;;;;;5067666;28;20399;-70
2022/10/06 12:38:05;;;;;;;;;;;;;;;;;;5092157;28;19921;-67
2022/10/06 12:40:31;;;;;;;;;;;;;;;;;;5070204;28;20257;-68
2022/10/06 12:42:56;;;;;;;;;;;;;;;;;;5072738;28;19927;-68
2022/10/06 12:45:22;;;;;;;;;;;;;;;;;;5068891;28;20090;-65
2022/10/06 12:47:47;;;;;;;;;;;;;;;;;;5073925;28;19916;-70
2022/10/06 12:50:12;;;;;;;;;;;;;;;;;;5069304;28;20364;-69
2022/10/06 12:52:37;;;;;;;;;;;;;;;;;;5073388;28;19916;-69
2022/10/06 12:55:02;;;;;;;;;;;;;;;;;;5074534;28;19963;-70
2022/10/06 12:57:29;;;;;;;;;;;;;;;;;;5074008;28;19916;-69
2022/10/06 12:59:54;;;;;;;;;;;;;;;;;;5074410;28;19927;-70
2022/10/06 13:02:19;;;;;;;;;;;;;;;;;;5072693;28;19920;-70
2022/10/06 13:04:47;;;;;;;;;;;;;;;;;;5077871;28;20013;-69
2022/10/06 13:07:12;;;;;;;;;;;;;;;;;;5074312;28;19909;-69
2022/10/06 13:09:37;;;;;;;;;;;;;;;;;;5072211;28;19913;-69
2022/10/06 13:12:02;;;;;;;;;;;;;;;;;;5063336;28;19912;-69
2022/10/06 13:14:28;;;;;;;;;;;;;;;;;;5073710;28;20324;-69
2022/10/06 13:16:53;;;;;;;;;;;;;;;;;;5073539;28;20300;-67
2022/10/06 13:19:18;;;;;;;;;;;;;;;;;;5067445;28;20415;-69
2022/10/06 13:21:43;;;;;;;;;;;;;;;;;;5103901;27;19923;-76
2022/10/06 13:24:08;;;;;;;;;;;;;;;;;;5073469;28;19912;-70
2022/10/06 13:26:33;;;;;;;;;;;;;;;;;;5078083;28;19952;-72
2022/10/06 13:28:58;;;;;;;;;;;;;;;;;;5073544;28;20335;-71
2022/10/06 13:31:25;;;;;;;;;;;;;;;;;;5073263;28;20384;-73
2022/10/06 13:33:51;;;;;;;;;;;;;;;;;;5073713;28;19950;-70
2022/10/06 13:36:16;;;;;;;;;;;;;;;;;;5072203;28;20288;-71
2022/10/06 13:38:41;;;;;;;;;;;;;;;;;;5077221;28;20421;-69
2022/10/06 13:41:06;;;;;;;;;;;;;;;;;;5073251;28;20312;-69
2022/10/06 13:43:31;;;;;;;;;;;;;;;;;;5067428;28;19992;-76
2022/10/06 13:45:56;;;;;;;;;;;;;;;;;;5065293;28;19917;-76
2022/10/06 13:48:22;;;;;;;;;;;;;;;;;;5091999;28;19916;-70
2022/10/06 13:50:48;;;;;;;;;;;;;;;;;;5103595;28;20305;-69
2022/10/06 13:53:14;;;;;;;;;;;;;;;;;;5068394;28;19920;-70
2022/10/06 13:55:39;;;;;;;;;;;;;;;;;;5074302;28;19920;-70
2022/10/06 13:58:04;;;;;;;;;;;;;;;;;;5062353;28;19917;-76
2022/10/06 14:00:29;;;;;;;;;;;;;;;;;;5093494;28;19943;-74
2022/10/06 14:02:54;;;;;;;;;;;;;;;;;;5063750;28;19917;-69
2022/10/06 14:05:20;;;;;;;;;;;;;;;;;;5094020;28;19920;-72
2022/10/06 14:07:45;;;;;;;;;;;;;;;;;;5062094;28;20441;-73
2022/10/06 14:10:10;;;;;;;;;;;;;;;;;;5089615;27;19920;-67
2022/10/06 14:12:35;;;;;;;;;;;;;;;;;;5062133;28;19917;-70
2022/10/06 14:15:01;;;;;;;;;;;;;;;;;;5092609;28;19920;-69
2022/10/06 14:17:27;;;;;;;;;;;;;;;;;;5061839;28;19913;-68
2022/10/06 14:19:52;;;;;;;;;;;;;;;;;;5089427;28;20399;-73
2022/10/06 14:22:17;;;;;;;;;;;;;;;;;;5093762;28;19916;-73
2022/10/06 14:24:43;;;;;;;;;;;;;;;;;;5093856;28;19956;-72
2022/10/06 14:27:08;;;;;;;;;;;;;;;;;;5060205;28;19917;-71
2022/10/06 14:29:35;;;;;;;;;;;;;;;;;;5062345;28;19916;-72
2022/10/06 14:32:00;;;;;;;;;;;;;;;;;;5057138;28;19920;-68
2022/10/06 14:34:27;;;;;;;;;;;;;;;;;;5062082;28;19940;-73
2022/10/06 14:36:53;;;;;;;;;;;;;;;;;;5060005;28;20380;-73
2022/10/06 14:39:19;;;;;;;;;;;;;;;;;;5060730;28;19913;-71
2022/10/06 14:41:44;;;;;;;;;;;;;;;;;;5066712;28;19946;-72
2022/10/06 14:44:10;;;;;;;;;;;;;;;;;;5062676;28;19966;-70
2022/10/06 14:46:36;;;;;;;;;;;;;;;;;;5061124;28;20025;-72
2022/10/06 14:49:02;;;;;;;;;;;;;;;;;;5087768;28;20384;-74
2022/10/06 14:51:28;;;;;;;;;;;;;;;;;;5093528;28;20379;-77
2022/10/06 14:53:53;;;;;;;;;;;;;;;;;;5065212;28;19927;-72
2022/10/06 14:56:18;;;;;;;;;;;;;;;;;;5061264;28;20339;-71
2022/10/06 14:58:44;;;;;;;;;;;;;;;;;;5063629;28;19966;-72
2022/10/06 15:01:11;;;;;;;;;;;;;;;;;;5094472;27;19920;-76
2022/10/06 15:03:37;;;;;;;;;;;;;;;;;;5058850;28;19962;-72
2022/10/06 15:08:46;;;;;;;;;;;;;;;;;;5062151;28;20178;-75
2022/10/06 15:11:11;;;;;;;;;;;;;;;;;;5065164;28;19959;-72
2022/10/06 15:13:40;;;;;;;;;;;;;;;;;;5060832;28;19938;-71
2022/10/06 15:16:05;;;;;;;;;;;;;;;;;;5060086;28;19924;-77
2022/10/06 15:18:30;;;;;;;;;;;;;;;;;;5054258;28;19920;-76
2022/10/06 15:20:56;;;;;;;;;;;;;;;;;;5055753;28;19928;-76
2022/10/06 15:23:23;;;;;;;;;;;;;;;;;;5058007;28;20443;-77
2022/10/06 15:31:16;;;;;;;;;;;;;;;;;;5061283;28;20453;-72
2022/10/06 15:33:42;;;;;;;;;;;;;;;;;;5057506;28;19916;-75
2022/10/06 15:36:08;;;;;;;;;;;;;;;;;;5060958;28;20179;-73
2022/10/06 15:38:33;;;;;;;;;;;;;;;;;;5058892;28;20045;-73
2022/10/06 15:40:58;;;;;;;;;;;;;;;;;;5061164;28;19917;-74
2022/10/06 15:43:53;;;;;;;;;;;;;;;;;;5064706;28;19913;-73
2022/10/06 15:46:09;;;;;;;;;;;;;;;;;;5057652;28;19916;-70
2022/10/06 15:48:34;;;;;;;;;;;;;;;;;;5089343;28;21301;-73
2022/10/06 15:50:59;;;;;;;;;;;;;;;;;;5061927;28;19974;-73
2022/10/06 15:53:24;;;;;;;;;;;;;;;;;;5091994;28;20007;-75
2022/10/06 15:55:50;;;;;;;;;;;;;;;;;;5060614;28;20297;-75
2022/10/06 15:58:15;;;;;;;;;;;;;;;;;;5059387;28;20512;-74
2022/10/06 16:00:40;;;;;;;;;;;;;;;;;;5059321;28;19951;-72
2022/10/06 16:03:22;;;;;;;;;;;;;;;;;;5059240;28;20355;-77
2022/10/06 16:05:51;;;;;;;;;;;;;;;;;;5059562;28;19924;-74
2022/10/06 16:08:16;;;;;;;;;;;;;;;;;;5058550;28;20162;-76
2022/10/06 16:10:41;;;;;;;;;;;;;;;;;;5090129;28;19917;-79
2022/10/06 16:13:06;;;;;;;;;;;;;;;;;;5093725;28;19917;-73
2022/10/06 16:15:31;;;;;;;;;;;;;;;;;;5092228;28;19917;-75
2022/10/06 16:17:57;;;;;;;;;;;;;;;;;;5060773;28;19916;-71
2022/10/06 16:20:22;;;;;;;;;;;;;;;;;;5059261;28;19928;-74
2022/10/06 16:22:47;;;;;;;;;;;;;;;;;;5090838;27;20377;-74
2022/10/06 16:25:12;;;;;;;;;;;;;;;;;;5062033;28;19920;-74
2022/10/06 16:27:38;;;;;;;;;;;;;;;;;;5062274;28;19927;-73
2022/10/06 16:30:03;;;;;;;;;;;;;;;;;;5091898;28;19928;-73
2022/10/06 16:32:28;;;;;;;;;;;;;;;;;;5061708;28;21602;-72
2022/10/06 16:34:53;;;;;;;;;;;;;;;;;;5063250;28;19959;-74
2022/10/06 16:37:19;;;;;;;;;;;;;;;;;;5068264;28;19965;-74
2022/10/06 16:39:44;;;;;;;;;;;;;;;;;;5068330;28;20007;-74
2022/10/06 16:42:09;;;;;;;;;;;;;;;;;;5090369;28;19924;-74
2022/10/06 16:44:34;;;;;;;;;;;;;;;;;;5059592;28;19923;-74
2022/10/06 16:46:59;;;;;;;;;;;;;;;;;;5058302;28;19943;-71
2022/10/06 16:49:26;;;;;;;;;;;;;;;;;;5057105;28;19916;-73